createdAt,value
2023-07-25T06:14:24.612Z,21.47
2023-07-25T06:16:52.090Z,21.43
2023-07-25T06:19:19.260Z,21.40
2023-07-25T06:21:46.654Z,21.43
2023-07-25T06:24:14.713Z,21.49
2023-07-25T06:26:42.245Z,21.51
2023-07-25T06:29:09.505Z,21.51
2023-07-25T06:31:37.973Z,21.48
2023-07-25T06:34:05.311Z,21.35
2023-07-25T06:36:32.659Z,21.15
2023-07-25T06:38:59.979Z,20.94
2023-07-25T06:41:27.246Z,20.73
2023-07-25T06:43:59.548Z,20.54
2023-07-25T06:46:27.045Z,20.37
2023-07-25T06:48:54.323Z,20.19
2023-07-25T06:51:21.816Z,20.08
2023-07-25T06:56:33.684Z,19.94
2023-07-25T06:59:01.046Z,19.90
2023-07-25T07:01:29.901Z,19.91
2023-07-25T07:03:57.479Z,19.87
2023-07-25T07:06:24.811Z,19.78
2023-07-25T07:08:52.028Z,19.63
2023-07-25T07:11:19.534Z,19.52
2023-07-25T07:13:46.839Z,19.43
2023-07-25T07:16:14.182Z,19.30
2023-07-25T07:18:42.321Z,19.28
2023-07-25T07:21:09.730Z,19.32
2023-07-25T07:23:36.944Z,19.44
2023-07-25T07:26:04.267Z,19.61
2023-07-25T07:28:31.576Z,19.79
2023-07-25T07:30:58.896Z,19.95
2023-07-25T07:33:26.603Z,20.00
2023-07-25T07:35:53.934Z,19.95
2023-07-25T07:38:21.172Z,19.90
2023-07-25T07:40:48.558Z,19.87
2023-07-25T07:43:17.044Z,19.85
2023-07-25T07:45:44.421Z,19.77
2023-07-25T07:48:11.906Z,19.74
2023-07-25T07:50:39.280Z,19.68
2023-07-25T07:53:06.521Z,19.70
2023-07-25T07:55:34.627Z,19.74
2023-07-25T07:58:02.116Z,19.84
2023-07-25T08:00:29.546Z,19.95
2023-07-25T08:02:56.789Z,20.06
2023-07-25T08:05:24.526Z,20.13
2023-07-25T08:07:51.782Z,20.18
2023-07-25T08:10:19.339Z,20.20
2023-07-25T08:12:46.620Z,20.27
2023-07-25T08:15:14.149Z,20.39
2023-07-25T08:17:41.461Z,20.26
2023-07-25T08:20:09.230Z,20.37
2023-07-25T08:22:36.538Z,20.36
2023-07-25T08:25:03.952Z,20.33
2023-07-25T08:27:31.667Z,20.33
2023-07-25T08:29:59.067Z,20.37
2023-07-25T08:32:27.498Z,20.48
2023-07-25T08:34:55.174Z,20.57
2023-07-25T08:37:24.367Z,20.58
2023-07-25T08:39:51.723Z,20.56
2023-07-25T08:42:19.342Z,20.61
2023-07-25T08:44:51.879Z,20.62
2023-07-25T08:47:23.872Z,20.66
2023-07-25T08:49:55.045Z,20.56
2023-07-25T08:52:27.508Z,20.51
2023-07-25T08:54:55.941Z,20.50
2023-07-25T08:57:23.988Z,20.57
2023-07-25T08:59:52.282Z,20.46
2023-07-25T09:02:20.577Z,20.75
2023-07-25T09:04:49.753Z,20.86
2023-07-25T09:07:18.176Z,20.89
2023-07-25T09:09:47.195Z,21.12
2023-07-25T09:12:14.908Z,21.28
2023-07-25T09:14:44.604Z,21.38
2023-07-25T09:17:12.006Z,21.33
2023-07-25T09:19:40.214Z,21.13
2023-07-25T09:22:35.271Z,21.07
2023-07-25T09:25:09.613Z,20.95
2023-07-25T09:27:36.912Z,20.90
2023-07-25T09:30:12.509Z,20.87
2023-07-25T09:32:39.983Z,20.72
2023-07-25T09:35:07.923Z,20.54
2023-07-25T09:37:35.357Z,20.46
2023-07-25T09:40:02.610Z,20.48
2023-07-25T09:42:29.992Z,20.56
2023-07-25T09:44:57.561Z,20.67
2023-07-25T09:47:27.188Z,20.87
2023-07-25T09:49:57.058Z,21.10
2023-07-25T09:52:24.600Z,21.21
2023-07-25T09:54:52.199Z,21.26
2023-07-25T09:57:20.293Z,21.30
2023-07-25T09:59:50.859Z,21.32
2023-07-25T10:02:19.326Z,21.35
2023-07-25T10:04:48.114Z,21.29
2023-07-25T10:07:15.715Z,21.24
2023-07-25T10:09:45.910Z,21.08
2023-07-25T10:12:13.567Z,20.93
2023-07-25T10:14:40.920Z,20.85
2023-07-25T10:17:09.377Z,20.87
2023-07-25T10:20:08.370Z,20.98
2023-07-25T10:22:43.802Z,21.17
2023-07-25T10:25:18.526Z,21.44
2023-07-25T10:27:45.990Z,21.52
2023-07-25T10:30:26.353Z,21.37
2023-07-25T10:32:55.875Z,21.35
2023-07-25T10:35:43.231Z,21.18
2023-07-25T10:38:12.455Z,21.05
2023-07-25T10:40:55.300Z,21.05
2023-07-25T10:43:27.560Z,21.11
2023-07-25T10:45:55.890Z,21.19
2023-07-25T10:48:46.324Z,21.45
2023-07-25T10:51:16.781Z,21.71
2023-07-25T10:54:10.056Z,21.85
2023-07-25T10:56:41.814Z,21.99
2023-07-25T10:59:12.528Z,22.29
2023-07-25T11:01:49.398Z,22.82
2023-07-25T11:04:33.403Z,23.34
2023-07-25T11:07:11.358Z,23.54
2023-07-25T11:09:43.430Z,23.72
2023-07-25T11:12:11.992Z,23.85
2023-07-25T11:14:46.101Z,24.05
2023-07-25T11:17:14.222Z,23.82
2023-07-25T11:19:41.590Z,23.64
2023-07-25T11:22:10.523Z,23.70
2023-07-25T11:24:48.942Z,23.77
2023-07-25T11:27:16.452Z,23.90
2023-07-25T11:29:44.587Z,23.96
2023-07-25T11:32:11.953Z,24.22
2023-07-25T11:34:39.218Z,24.25
2023-07-25T11:37:13.751Z,23.97
2023-07-25T11:39:41.240Z,23.70
2023-07-25T11:42:09.922Z,23.55
2023-07-25T11:44:37.967Z,23.34
2023-07-25T11:47:05.995Z,23.12
2023-07-25T11:49:49.724Z,23.04
2023-07-25T11:52:19.619Z,22.97
2023-07-25T11:54:48.764Z,23.12
2023-07-25T11:57:16.503Z,23.28
2023-07-25T11:59:44.564Z,23.70
2023-07-25T12:02:14.094Z,23.84
2023-07-25T12:04:46.120Z,23.75
2023-07-25T12:07:14.609Z,23.59
2023-07-25T12:09:56.432Z,23.53
2023-07-25T12:12:23.830Z,23.48
2023-07-25T12:15:03.138Z,23.43
2023-07-25T12:17:46.376Z,23.23
2023-07-25T12:20:24.079Z,23.13
2023-07-25T12:23:06.835Z,23.46
2023-07-25T12:25:37.514Z,23.73
2023-07-25T12:28:05.123Z,23.71
2023-07-25T12:30:32.405Z,23.79
2023-07-25T12:32:59.794Z,24.01
2023-07-25T12:35:27.978Z,24.04
2023-07-25T12:37:55.412Z,23.98
2023-07-25T12:40:22.706Z,23.96
2023-07-25T12:42:50.050Z,24.04
2023-07-25T12:45:17.422Z,24.05
2023-07-25T12:47:44.774Z,24.20
2023-07-25T12:50:12.331Z,24.37
2023-07-25T12:52:39.937Z,24.71
2023-07-25T12:55:08.397Z,24.98
2023-07-25T12:57:35.781Z,25.41
2023-07-25T13:00:08.366Z,25.57
2023-07-25T13:02:36.064Z,25.51
2023-07-25T13:05:03.518Z,25.46
2023-07-25T13:07:31.288Z,25.79
2023-07-25T13:09:58.562Z,26.12
2023-07-25T13:12:25.894Z,25.90
2023-07-25T13:14:53.142Z,25.85
2023-07-25T13:17:20.506Z,26.18
2023-07-25T13:19:47.810Z,26.76
2023-07-25T13:22:15.602Z,26.84
2023-07-25T13:24:42.972Z,26.58
2023-07-25T13:27:10.494Z,26.25
2023-07-25T13:29:38.659Z,26.05
2023-07-25T13:32:06.465Z,26.03
2023-07-25T13:34:33.761Z,25.98
2023-07-25T13:37:01.088Z,26.27
2023-07-25T13:39:28.372Z,27.00
2023-07-25T13:41:55.796Z,27.43
2023-07-25T13:44:23.229Z,27.53
2023-07-25T13:46:51.749Z,27.71
2023-07-25T13:49:19.104Z,27.92
2023-07-25T13:51:46.391Z,27.90
2023-07-25T13:54:14.944Z,27.70
2023-07-25T13:56:43.858Z,27.55
2023-07-25T13:59:12.685Z,27.16
2023-07-25T14:01:40.388Z,27.17
2023-07-25T14:04:10.009Z,27.41
2023-07-25T14:06:37.481Z,27.77
2023-07-25T14:09:05.230Z,27.40
2023-07-25T14:11:33.437Z,26.81
2023-07-25T14:14:01.053Z,26.34
2023-07-25T14:16:29.428Z,25.92
2023-07-25T14:18:56.714Z,25.71
2023-07-25T14:21:24.016Z,25.65
2023-07-25T14:23:51.359Z,25.69
2023-07-25T14:26:19.267Z,25.71
2023-07-25T14:28:47.205Z,25.66
2023-07-25T14:31:14.553Z,25.75
2023-07-25T14:33:41.929Z,25.87
2023-07-25T14:36:09.229Z,26.13
2023-07-25T14:38:37.034Z,26.50
2023-07-25T14:41:04.677Z,26.84
2023-07-25T14:43:31.967Z,26.95
2023-07-25T14:46:00.548Z,26.79
2023-07-25T14:48:27.921Z,26.49
2023-07-25T14:50:55.657Z,26.21
2023-07-25T14:53:22.972Z,26.07
2023-07-25T14:55:50.387Z,26.25
2023-07-25T14:58:17.614Z,26.67
2023-07-25T15:00:45.044Z,27.11
2023-07-25T15:03:12.544Z,27.11
2023-07-25T15:05:39.834Z,26.96
2023-07-25T15:08:08.450Z,26.71
2023-07-25T15:10:38.437Z,26.32
2023-07-25T15:13:07.790Z,25.90
2023-07-25T15:15:35.129Z,25.66
2023-07-25T15:18:02.451Z,25.48
2023-07-25T15:20:29.914Z,25.34
2023-07-25T15:22:57.161Z,25.04
2023-07-25T15:25:25.822Z,24.84
2023-07-25T15:27:54.200Z,24.82
2023-07-25T15:30:21.625Z,24.80
2023-07-25T15:32:49.002Z,24.71
2023-07-25T15:35:17.720Z,24.52
2023-07-25T15:37:45.355Z,24.37
2023-07-25T15:40:12.828Z,24.21
2023-07-25T15:42:40.035Z,24.05
2023-07-25T15:45:07.898Z,23.94
2023-07-25T15:47:35.218Z,23.88
2023-07-25T15:50:02.649Z,23.89
2023-07-25T15:52:30.126Z,23.90
2023-07-25T15:55:00.077Z,23.96
2023-07-25T15:57:27.512Z,23.96
2023-07-25T15:59:55.017Z,23.92
2023-07-25T16:02:22.335Z,23.85
2023-07-25T16:04:49.834Z,23.79
2023-07-25T16:07:17.214Z,23.72
2023-07-25T16:09:44.846Z,23.60
2023-07-25T16:12:12.307Z,23.43
2023-07-25T16:14:39.683Z,23.25
2023-07-25T16:17:07.046Z,23.11
2023-07-25T16:19:34.294Z,23.03
2023-07-25T16:22:01.729Z,22.91
2023-07-25T16:24:29.194Z,22.82
2023-07-25T16:26:56.432Z,22.76
2023-07-25T16:29:23.785Z,22.72
2023-07-25T16:31:51.722Z,22.65
2023-07-25T16:34:19.532Z,22.60
2023-07-25T16:36:46.789Z,22.57
2023-07-25T16:39:14.173Z,22.57
2023-07-25T16:41:41.358Z,22.58
2023-07-25T16:44:08.864Z,22.56
2023-07-25T16:46:36.608Z,22.52
2023-07-25T16:49:04.276Z,22.50
2023-07-25T16:51:31.820Z,22.47
2023-07-25T16:53:59.380Z,22.43
2023-07-25T16:56:26.655Z,22.33
2023-07-25T16:58:54.201Z,22.26
2023-07-25T17:01:21.579Z,22.20
2023-07-25T17:03:48.936Z,22.18
2023-07-25T17:06:16.245Z,22.16
2023-07-25T17:08:44.647Z,22.16
2023-07-25T17:11:12.925Z,22.15
2023-07-25T17:13:40.709Z,22.18
2023-07-25T17:16:09.657Z,22.17
2023-07-25T17:18:37.495Z,22.16
2023-07-25T17:21:05.534Z,22.13
2023-07-25T17:23:33.036Z,22.13
2023-07-25T17:26:00.228Z,22.09
2023-07-25T17:28:27.547Z,22.08
2023-07-25T17:30:54.878Z,22.08
2023-07-25T17:33:22.303Z,22.09
2023-07-25T17:35:50.316Z,22.13
2023-07-25T17:38:19.772Z,22.17
2023-07-25T17:40:48.870Z,22.20
2023-07-25T17:43:16.555Z,22.25
2023-07-25T17:45:43.977Z,22.31
2023-07-25T17:48:12.213Z,22.34
2023-07-25T17:50:39.569Z,22.34
2023-07-25T17:53:06.847Z,22.21
2023-07-25T17:55:34.292Z,22.18
2023-07-25T17:58:01.688Z,21.58
2023-07-25T18:00:30.148Z,20.93
2023-07-25T18:02:57.572Z,20.53
2023-07-25T18:05:25.293Z,20.28
2023-07-25T18:07:52.780Z,19.99
2023-07-25T18:10:20.170Z,19.57
2023-07-25T18:12:47.483Z,18.98
2023-07-25T18:15:14.854Z,18.71
2023-07-25T18:17:45.069Z,18.49
2023-07-25T18:20:13.627Z,18.27
2023-07-25T18:22:40.876Z,18.13
2023-07-25T18:25:08.690Z,18.08
2023-07-25T18:27:37.024Z,18.00
2023-07-25T18:30:05.633Z,17.95
2023-07-25T18:32:34.618Z,17.89
2023-07-25T18:35:02.439Z,17.82
2023-07-25T18:37:30.086Z,17.81
2023-07-25T18:39:57.720Z,17.85
2023-07-25T18:42:26.161Z,17.91
2023-07-25T18:44:53.756Z,17.95
2023-07-25T18:47:33.622Z,17.95
2023-07-25T18:50:04.149Z,17.94
2023-07-25T18:52:31.486Z,17.97
2023-07-25T18:54:58.772Z,17.97
2023-07-25T18:57:26.111Z,17.95
2023-07-25T18:59:53.433Z,17.95
2023-07-25T19:02:21.224Z,17.94
